Bao An Cheng 69 — BVBD5 — position and weather

sailwx.info

Track history (hours):
 
Tides and Currents Weather Stations Pressure Air Temp Water Temp Dewpoint Dewpoint Depression Visibility Wind Speed Wind Dir Waves Ship Positions

Bao An Cheng 69

Last reported at 2016-Jan-29 21:26 UTC. Time now 2016-Feb-11 10:45 UTC.
Position N 24°49' E 118°43'.
Warning: this ship's position is 12 days out of date.

Length 121 m; draft 5.7 m.

Type: Cargo ship. MMSI: 412703090.

Date/timePositionNaut miles runAvg speedWind from/ knotsBaromVisibWave heightAir tempDewpointWater temp
2016-Jan-29 21:26N 24°49' E 118°43'0 0.0
2016-Jan-29 20:26N 24°49' E 118°43'0 0.0
2016-Jan-29 19:32N 24°49' E 118°43'0 0.0
2016-Jan-29 18:32N 24°49' E 118°43'0 0.0
2016-Jan-29 17:32N 24°49' E 118°43'0 0.0
2016-Jan-29 16:32N 24°49' E 118°43'0 0.0
2016-Jan-29 15:32N 24°49' E 118°43'0 0.0
2016-Jan-29 14:32N 24°49' E 118°43'0 0.0
2016-Jan-29 13:32N 24°49' E 118°43'0 0.0
2016-Jan-29 12:20N 24°49' E 118°43'0 0.0
2016-Jan-29 10:28N 24°49' E 118°43'1 1.1
2016-Jan-29 09:33N 24°49' E 118°44'5 5.5
2016-Jan-29 08:33N 24°45' E 118°49'9 9.5
2016-Jan-29 07:33N 24°36' E 118°45'21 9.5
2016-Jan-29 05:23N 24°21' E 118°30'8 9.9
2016-Jan-29 04:33N 24°15' E 118°24'1110.4
2016-Jan-29 03:32N 24°07' E 118°16'1310.9
2016-Jan-29 02:20N 23°59' E 118°04'910.4
2016-Jan-29 01:27N 23°53' E 117°57'62 9.0
2016-Jan-28 18:33N 23°20' E 116°60'9 9.0
2016-Jan-28 17:33N 23°17' E 116°50'7 6.7
2016-Jan-28 16:33N 23°20' E 116°44'1 0.6
2016-Jan-28 15:28N 23°21' E 116°44'0 0.0
2016-Jan-28 14:28N 23°21' E 116°44'0 0.0
2016-Jan-28 13:28N 23°21' E 116°44'0 0.0
2016-Jan-28 12:28N 23°21' E 116°44'0 0.0
2016-Jan-28 11:28N 23°21' E 116°44'0 0.0
2016-Jan-28 10:04N 23°21' E 116°44'0 0.0
2016-Jan-28 09:28N 23°21' E 116°44'0 0.0
2016-Jan-28 08:22N 23°21' E 116°44'0 0.0
2016-Jan-28 07:28N 23°21' E 116°44'0 0.0
2016-Jan-28 06:28N 23°21' E 116°44'0 0.0
2016-Jan-28 05:16N 23°21' E 116°44'0 0.0
2016-Jan-28 04:28N 23°21' E 116°44'0 0.0
2016-Jan-28 03:16N 23°21' E 116°44'0 0.0
2016-Jan-28 02:22N 23°21' E 116°44'0 0.0
2016-Jan-28 01:22N 23°21' E 116°44'0 0.0
2016-Jan-28 00:22N 23°21' E 116°44'0 0.0
2016-Jan-27 23:22N 23°21' E 116°44'0 0.0
2016-Jan-27 22:22N 23°21' E 116°44'0 0.0
2016-Jan-27 21:28N 23°21' E 116°44'0 0.0
2016-Jan-27 20:22N 23°21' E 116°44'0 0.0
2016-Jan-27 19:28N 23°21' E 116°44'0 0.0
2016-Jan-27 18:28N 23°21' E 116°44'0 0.0
2016-Jan-27 17:28N 23°21' E 116°44'0 0.0
2016-Jan-27 16:33N 23°21' E 116°44'0 0.0
2016-Jan-27 15:33N 23°21' E 116°44'0 0.0
2016-Jan-27 14:27N 23°21' E 116°44'0 0.0
2016-Jan-27 13:33N 23°21' E 116°44'0 0.0
2016-Jan-27 12:33N 23°21' E 116°44'0 0.0
2016-Jan-27 11:27N 23°21' E 116°44'0 0.0
2016-Jan-27 10:27N 23°21' E 116°44'0 0.0
2016-Jan-27 09:33N 23°21' E 116°44'0 0.0
2016-Jan-27 08:33N 23°21' E 116°44'0 0.0
2016-Jan-27 07:21N 23°21' E 116°44'0 0.0
2016-Jan-27 06:33N 23°21' E 116°44'0 0.0
2016-Jan-27 05:32N 23°21' E 116°44'0 0.0
2016-Jan-27 04:32N 23°21' E 116°44'2 2.4
2016-Jan-27 03:33N 23°19' E 116°45'6 5.4
2016-Jan-27 02:30N 23°16' E 116°50'0 0.1
2016-Jan-27 01:26N 23°16' E 116°51'0 0.1
2016-Jan-27 00:20N 23°16' E 116°50'0 0.0
2016-Jan-26 23:26N 23°16' E 116°50'0 0.0
2016-Jan-26 22:32N 23°16' E 116°50'0 0.0
2016-Jan-26 21:26N 23°16' E 116°50'0 0.1
2016-Jan-26 20:32N 23°16' E 116°50'0 0.0
2016-Jan-26 19:26N 23°16' E 116°50'0 0.0
2016-Jan-26 18:26N 23°16' E 116°50'0 0.1
2016-Jan-26 17:32N 23°16' E 116°50'0 0.0
2016-Jan-26 16:32N 23°16' E 116°50'0 0.0
2016-Jan-26 15:32N 23°16' E 116°50'0 0.0
2016-Jan-26 14:32N 23°16' E 116°50'0 0.1
2016-Jan-26 13:32N 23°16' E 116°51'0 0.1
2016-Jan-26 12:32N 23°16' E 116°51'0 0.1
2016-Jan-26 11:32N 23°16' E 116°50'0 0.0
2016-Jan-26 10:26N 23°16' E 116°50'0 0.0
2016-Jan-26 09:26N 23°16' E 116°50'0 0.0
2016-Jan-26 08:32N 23°16' E 116°50'128 8.0
2016-Jan-25 16:33N 24°33' E 118°42'10 9.8
2016-Jan-25 15:33N 24°42' E 118°47'7 6.7
2016-Jan-25 14:33N 24°49' E 118°46'2 1.9
2016-Jan-25 13:28N 24°49' E 118°44'0 0.0
2016-Jan-25 12:28N 24°49' E 118°44'0 0.0
2016-Jan-25 11:28N 24°49' E 118°44'0 0.0
2016-Jan-25 10:28N 24°49' E 118°44'0 0.0
2016-Jan-25 09:28N 24°49' E 118°44'0 0.0
2016-Jan-25 08:28N 24°49' E 118°44'0 0.0
2016-Jan-25 07:28N 24°49' E 118°44'0 0.0
2016-Jan-25 05:10N 24°49' E 118°44'0 0.0
2016-Jan-25 04:22N 24°49' E 118°44'0 0.0
2016-Jan-25 03:16N 24°49' E 118°44'0 0.0
2016-Jan-25 02:22N 24°49' E 118°44'0 0.0
2016-Jan-25 01:22N 24°49' E 118°44'0 0.0
2016-Jan-25 00:28N 24°49' E 118°44'0 0.0
2016-Jan-24 23:16N 24°49' E 118°44'0 0.0
2016-Jan-24 22:22N 24°49' E 118°44'3 3.2
2016-Jan-24 21:33N 24°48' E 118°46'2 2.0
2016-Jan-24 20:25N 24°47' E 118°49'0 0.0
2016-Jan-24 19:32N 24°47' E 118°49'0 0.1
2016-Jan-24 18:32N 24°47' E 118°49'0 0.0
2016-Jan-24 17:26N 24°47' E 118°49'0 0.1
2016-Jan-24 16:32N 24°47' E 118°49'0 0.0
2016-Jan-24 15:32N 24°47' E 118°49'0 0.0
2016-Jan-24 14:20N 24°47' E 118°49'0 0.1
2016-Jan-24 13:26N 24°48' E 118°49'0 0.0
2016-Jan-24 12:32N 24°48' E 118°49'0 0.0
2016-Jan-24 11:32N 24°48' E 118°49'0 0.2
2016-Jan-24 10:32N 24°47' E 118°49'0 0.1
2016-Jan-24 09:21N 24°47' E 118°49'0 0.1
2016-Jan-24 08:22N 24°47' E 118°49'0 0.0
2016-Jan-24 07:16N 24°47' E 118°49'0 0.1
2016-Jan-24 06:28N 24°47' E 118°49'0 0.0
2016-Jan-24 05:28N 24°47' E 118°49'0 0.3
2016-Jan-24 04:33N 24°47' E 118°49'1010.0
2016-Jan-24 03:33N 24°50' E 118°59'1010.2
2016-Jan-24 02:33N 24°55' E 119°09'  
2016-Jan-21 16:15N 29°27' E 122°22'811.0
2016-Jan-21 15:33N 29°34' E 122°26'1110.5
2016-Jan-21 14:32N 29°44' E 122°31'85 9.2
2016-Jan-21 05:14N 31°05' E 122°01'810.6
2016-Jan-21 04:30N 31°09' E 121°53'10 9.9
2016-Jan-21 03:26N 31°17' E 121°45'8 8.6
2016-Jan-21 02:32N 31°22' E 121°38'6 6.6
2016-Jan-21 01:33N 31°24' E 121°31'2 1.0
2016-Jan-20 23:13N 31°21' E 121°30'0 0.0
2016-Jan-20 22:25N 31°21' E 121°30'0 0.0
2016-Jan-20 21:31N 31°21' E 121°30'0 0.0
2016-Jan-20 19:13N 31°21' E 121°30'0 0.0
2016-Jan-20 18:13N 31°21' E 121°30'0 0.0
2016-Jan-20 15:19N 31°21' E 121°30'0 0.0
2016-Jan-20 14:31N 31°21' E 121°30'0 0.0
2016-Jan-20 12:19N 31°21' E 121°30'0 0.0
2016-Jan-20 10:25N 31°21' E 121°30'0 0.0
2016-Jan-20 09:31N 31°21' E 121°30'0 0.0
2016-Jan-20 08:33N 31°21' E 121°30'3 2.8
2016-Jan-20 07:33N 31°24' E 121°32'6 5.5
2016-Jan-20 06:33N 31°23' E 121°38'0 0.0
2016-Jan-20 05:33N 31°23' E 121°38'0 0.0
2016-Jan-20 02:14N 31°23' E 121°38'4 5.3
2016-Jan-20 01:32N 31°20' E 121°41'1110.9
2016-Jan-20 00:29N 31°11' E 121°50'  
Track history (hours):
 
Tides and Currents Weather Stations Pressure Air Temp Water Temp Dewpoint Dewpoint Depression Visibility Wind Speed Wind Dir Waves Ship Positions

Bao An Cheng 69

Last reported at 2016-Jan-29 21:26 UTC. Time now 2016-Feb-11 10:45 UTC.
Position N 24°49' E 118°43'.
Warning: this ship's position is 12 days out of date.

Length 121 m; draft 5.7 m.

Type: Cargo ship. MMSI: 412703090.

Date/timePositionNaut miles runAvg speedWind from/ knotsBaromVisibWave heightAir tempDewpointWater temp
2016-Jan-29 21:26N 24°49' E 118°43'0 0.0
2016-Jan-29 20:26N 24°49' E 118°43'0 0.0
2016-Jan-29 19:32N 24°49' E 118°43'0 0.0
2016-Jan-29 18:32N 24°49' E 118°43'0 0.0
2016-Jan-29 17:32N 24°49' E 118°43'0 0.0
2016-Jan-29 16:32N 24°49' E 118°43'0 0.0
2016-Jan-29 15:32N 24°49' E 118°43'0 0.0
2016-Jan-29 14:32N 24°49' E 118°43'0 0.0
2016-Jan-29 13:32N 24°49' E 118°43'0 0.0
2016-Jan-29 12:20N 24°49' E 118°43'0 0.0
2016-Jan-29 10:28N 24°49' E 118°43'1 1.1
2016-Jan-29 09:33N 24°49' E 118°44'5 5.5
2016-Jan-29 08:33N 24°45' E 118°49'9 9.5
2016-Jan-29 07:33N 24°36' E 118°45'21 9.5
2016-Jan-29 05:23N 24°21' E 118°30'8 9.9
2016-Jan-29 04:33N 24°15' E 118°24'1110.4
2016-Jan-29 03:32N 24°07' E 118°16'1310.9
2016-Jan-29 02:20N 23°59' E 118°04'910.4
2016-Jan-29 01:27N 23°53' E 117°57'62 9.0
2016-Jan-28 18:33N 23°20' E 116°60'9 9.0
2016-Jan-28 17:33N 23°17' E 116°50'7 6.7
2016-Jan-28 16:33N 23°20' E 116°44'1 0.6
2016-Jan-28 15:28N 23°21' E 116°44'0 0.0
2016-Jan-28 14:28N 23°21' E 116°44'0 0.0
2016-Jan-28 13:28N 23°21' E 116°44'0 0.0
2016-Jan-28 12:28N 23°21' E 116°44'0 0.0
2016-Jan-28 11:28N 23°21' E 116°44'0 0.0
2016-Jan-28 10:04N 23°21' E 116°44'0 0.0
2016-Jan-28 09:28N 23°21' E 116°44'0 0.0
2016-Jan-28 08:22N 23°21' E 116°44'0 0.0
2016-Jan-28 07:28N 23°21' E 116°44'0 0.0
2016-Jan-28 06:28N 23°21' E 116°44'0 0.0
2016-Jan-28 05:16N 23°21' E 116°44'0 0.0
2016-Jan-28 04:28N 23°21' E 116°44'0 0.0
2016-Jan-28 03:16N 23°21' E 116°44'0 0.0
2016-Jan-28 02:22N 23°21' E 116°44'0 0.0
2016-Jan-28 01:22N 23°21' E 116°44'0 0.0
2016-Jan-28 00:22N 23°21' E 116°44'0 0.0
2016-Jan-27 23:22N 23°21' E 116°44'0 0.0
2016-Jan-27 22:22N 23°21' E 116°44'0 0.0
2016-Jan-27 21:28N 23°21' E 116°44'0 0.0
2016-Jan-27 20:22N 23°21' E 116°44'0 0.0
2016-Jan-27 19:28N 23°21' E 116°44'0 0.0
2016-Jan-27 18:28N 23°21' E 116°44'0 0.0
2016-Jan-27 17:28N 23°21' E 116°44'0 0.0
2016-Jan-27 16:33N 23°21' E 116°44'0 0.0
2016-Jan-27 15:33N 23°21' E 116°44'0 0.0
2016-Jan-27 14:27N 23°21' E 116°44'0 0.0
2016-Jan-27 13:33N 23°21' E 116°44'0 0.0
2016-Jan-27 12:33N 23°21' E 116°44'0 0.0
2016-Jan-27 11:27N 23°21' E 116°44'0 0.0
2016-Jan-27 10:27N 23°21' E 116°44'0 0.0
2016-Jan-27 09:33N 23°21' E 116°44'0 0.0
2016-Jan-27 08:33N 23°21' E 116°44'0 0.0
2016-Jan-27 07:21N 23°21' E 116°44'0 0.0
2016-Jan-27 06:33N 23°21' E 116°44'0 0.0
2016-Jan-27 05:32N 23°21' E 116°44'0 0.0
2016-Jan-27 04:32N 23°21' E 116°44'2 2.4
2016-Jan-27 03:33N 23°19' E 116°45'6 5.4
2016-Jan-27 02:30N 23°16' E 116°50'0 0.1
2016-Jan-27 01:26N 23°16' E 116°51'0 0.1
2016-Jan-27 00:20N 23°16' E 116°50'0 0.0
2016-Jan-26 23:26N 23°16' E 116°50'0 0.0
2016-Jan-26 22:32N 23°16' E 116°50'0 0.0
2016-Jan-26 21:26N 23°16' E 116°50'0 0.1
2016-Jan-26 20:32N 23°16' E 116°50'0 0.0
2016-Jan-26 19:26N 23°16' E 116°50'0 0.0
2016-Jan-26 18:26N 23°16' E 116°50'0 0.1
2016-Jan-26 17:32N 23°16' E 116°50'0 0.0
2016-Jan-26 16:32N 23°16' E 116°50'0 0.0
2016-Jan-26 15:32N 23°16' E 116°50'0 0.0
2016-Jan-26 14:32N 23°16' E 116°50'0 0.1
2016-Jan-26 13:32N 23°16' E 116°51'0 0.1
2016-Jan-26 12:32N 23°16' E 116°51'0 0.1
2016-Jan-26 11:32N 23°16' E 116°50'0 0.0
2016-Jan-26 10:26N 23°16' E 116°50'0 0.0
2016-Jan-26 09:26N 23°16' E 116°50'0 0.0
2016-Jan-26 08:32N 23°16' E 116°50'128 8.0
2016-Jan-25 16:33N 24°33' E 118°42'10 9.8
2016-Jan-25 15:33N 24°42' E 118°47'7 6.7
2016-Jan-25 14:33N 24°49' E 118°46'2 1.9
2016-Jan-25 13:28N 24°49' E 118°44'0 0.0
2016-Jan-25 12:28N 24°49' E 118°44'0 0.0
2016-Jan-25 11:28N 24°49' E 118°44'0 0.0
2016-Jan-25 10:28N 24°49' E 118°44'0 0.0
2016-Jan-25 09:28N 24°49' E 118°44'0 0.0
2016-Jan-25 08:28N 24°49' E 118°44'0 0.0
2016-Jan-25 07:28N 24°49' E 118°44'0 0.0
2016-Jan-25 05:10N 24°49' E 118°44'0 0.0
2016-Jan-25 04:22N 24°49' E 118°44'0 0.0
2016-Jan-25 03:16N 24°49' E 118°44'0 0.0
2016-Jan-25 02:22N 24°49' E 118°44'0 0.0
2016-Jan-25 01:22N 24°49' E 118°44'0 0.0
2016-Jan-25 00:28N 24°49' E 118°44'0 0.0
2016-Jan-24 23:16N 24°49' E 118°44'0 0.0
2016-Jan-24 22:22N 24°49' E 118°44'3 3.2
2016-Jan-24 21:33N 24°48' E 118°46'2 2.0
2016-Jan-24 20:25N 24°47' E 118°49'0 0.0
2016-Jan-24 19:32N 24°47' E 118°49'0 0.1
2016-Jan-24 18:32N 24°47' E 118°49'0 0.0
2016-Jan-24 17:26N 24°47' E 118°49'0 0.1
2016-Jan-24 16:32N 24°47' E 118°49'0 0.0
2016-Jan-24 15:32N 24°47' E 118°49'0 0.0
2016-Jan-24 14:20N 24°47' E 118°49'0 0.1
2016-Jan-24 13:26N 24°48' E 118°49'0 0.0
2016-Jan-24 12:32N 24°48' E 118°49'0 0.0
2016-Jan-24 11:32N 24°48' E 118°49'0 0.2
2016-Jan-24 10:32N 24°47' E 118°49'0 0.1
2016-Jan-24 09:21N 24°47' E 118°49'0 0.1
2016-Jan-24 08:22N 24°47' E 118°49'0 0.0
2016-Jan-24 07:16N 24°47' E 118°49'0 0.1
2016-Jan-24 06:28N 24°47' E 118°49'0 0.0
2016-Jan-24 05:28N 24°47' E 118°49'0 0.3
2016-Jan-24 04:33N 24°47' E 118°49'1010.0
2016-Jan-24 03:33N 24°50' E 118°59'1010.2
2016-Jan-24 02:33N 24°55' E 119°09'  
2016-Jan-21 16:15N 29°27' E 122°22'811.0
2016-Jan-21 15:33N 29°34' E 122°26'1110.5
2016-Jan-21 14:32N 29°44' E 122°31'85 9.2
2016-Jan-21 05:14N 31°05' E 122°01'810.6
2016-Jan-21 04:30N 31°09' E 121°53'10 9.9
2016-Jan-21 03:26N 31°17' E 121°45'8 8.6
2016-Jan-21 02:32N 31°22' E 121°38'6 6.6
2016-Jan-21 01:33N 31°24' E 121°31'2 1.0
2016-Jan-20 23:13N 31°21' E 121°30'0 0.0
2016-Jan-20 22:25N 31°21' E 121°30'0 0.0
2016-Jan-20 21:31N 31°21' E 121°30'0 0.0
2016-Jan-20 19:13N 31°21' E 121°30'0 0.0
2016-Jan-20 18:13N 31°21' E 121°30'0 0.0
2016-Jan-20 15:19N 31°21' E 121°30'0 0.0
2016-Jan-20 14:31N 31°21' E 121°30'0 0.0
2016-Jan-20 12:19N 31°21' E 121°30'0 0.0
2016-Jan-20 10:25N 31°21' E 121°30'0 0.0
2016-Jan-20 09:31N 31°21' E 121°30'0 0.0
2016-Jan-20 08:33N 31°21' E 121°30'3 2.8
2016-Jan-20 07:33N 31°24' E 121°32'6 5.5
2016-Jan-20 06:33N 31°23' E 121°38'0 0.0
2016-Jan-20 05:33N 31°23' E 121°38'0 0.0
2016-Jan-20 02:14N 31°23' E 121°38'4 5.3
2016-Jan-20 01:32N 31°20' E 121°41'1110.9
2016-Jan-20 00:29N 31°11' E 121°50'  

Dump ship's entire track history